Time;durP1;ratioP1;P1;durP2;ratioP2;P2;SDS_P1;SDS_P2;PMS_P1;PMS_P2;Temp;Humidity;BMP_temperature;BMP_pressure;BME280_temperature;BME280_humidity;BME280_pressure;Samples;Min_cycle;Max_cycle;Signal;HPM_P1;HPM_P2
2023/04/15 00:02:03;;;;;;;51.20;33.87;;;9.00;99.90;;;;;;8294153;28;20219;-68
2023/04/15 00:06:07;;;;;;;59.07;36.70;;;9.00;99.90;;;;;;8297194;28;20200;-67
2023/04/15 00:10:13;;;;;;;45.73;30.80;;;9.00;99.90;;;;;;8289466;28;20211;-67
2023/04/15 00:14:15;;;;;;;44.97;30.87;;;9.00;99.90;;;;;;8292822;28;20257;-67
2023/04/15 00:18:16;;;;;;;42.30;29.97;;;9.00;99.90;;;;;;8289676;28;20207;-67
2023/04/15 00:22:17;;;;;;;37.80;25.43;;;9.00;99.90;;;;;;8298755;28;20219;-67
2023/04/15 00:26:19;;;;;;;33.80;24.23;;;8.90;99.90;;;;;;8301818;28;20273;-67
2023/04/15 00:30:20;;;;;;;29.17;22.77;;;9.00;99.90;;;;;;8297350;28;20212;-68
2023/04/15 00:34:28;;;;;;;28.27;23.03;;;9.00;99.90;;;;;;8299938;28;20188;-68
2023/04/15 00:38:29;;;;;;;27.97;21.93;;;9.00;99.90;;;;;;8287114;28;20200;-68
2023/04/15 00:42:30;;;;;;;30.33;24.10;;;9.00;99.90;;;;;;8289929;28;20187;-67
2023/04/15 00:46:38;;;;;;;28.97;22.30;;;9.00;99.90;;;;;;8291186;28;20247;-67
2023/04/15 00:50:39;;;;;;;27.43;22.20;;;9.00;99.90;;;;;;8294526;28;20293;-68
2023/04/15 00:54:51;;;;;;;31.70;25.23;;;9.00;99.90;;;;;;8295571;28;20183;-68
2023/04/15 00:58:56;;;;;;;32.00;24.63;;;9.00;99.90;;;;;;8290050;28;20317;-69
2023/04/15 01:02:56;;;;;;;40.73;29.70;;;9.00;99.90;;;;;;8291239;28;20240;-67
2023/04/15 01:06:57;;;;;;;43.50;31.37;;;9.00;99.90;;;;;;8296139;28;20189;-68
2023/04/15 01:11:02;;;;;;;58.13;40.90;;;9.00;99.90;;;;;;8290680;28;20257;-67
2023/04/15 01:15:03;;;;;;;54.80;39.53;;;9.00;99.90;;;;;;8293039;28;20264;-68
2023/04/15 01:19:08;;;;;;;64.37;42.47;;;9.10;99.90;;;;;;8293753;28;20188;-69
2023/04/15 01:23:09;;;;;;;53.63;35.80;;;9.10;99.90;;;;;;8295079;28;20188;-68
2023/04/15 01:27:10;;;;;;;47.10;33.63;;;9.10;99.90;;;;;;8300025;28;20270;-68
2023/04/15 01:31:13;;;;;;;40.27;29.60;;;9.10;99.90;;;;;;8288864;28;20267;-69
2023/04/15 01:35:14;;;;;;;47.57;32.43;;;9.20;99.90;;;;;;8292745;28;20194;-69
2023/04/15 01:39:15;;;;;;;47.37;31.00;;;9.20;99.90;;;;;;8293568;28;20206;-68
2023/04/15 01:43:16;;;;;;;32.60;24.53;;;9.20;99.90;;;;;;8295418;28;20213;-69
2023/04/15 01:47:17;;;;;;;29.63;22.37;;;9.30;99.90;;;;;;8295058;28;20196;-68
2023/04/15 01:51:22;;;;;;;31.20;22.83;;;9.30;99.90;;;;;;8296098;28;20334;-69
2023/04/15 01:55:23;;;;;;;27.77;22.33;;;9.40;99.90;;;;;;8295066;28;20190;-70
2023/04/15 01:59:24;;;;;;;28.03;21.17;;;9.40;99.90;;;;;;8289689;28;20233;-69
2023/04/15 02:03:25;;;;;;;26.47;20.83;;;9.50;99.90;;;;;;8292172;28;20208;-68
2023/04/15 02:07:27;;;;;;;25.57;18.57;;;9.50;99.90;;;;;;8295690;28;20311;-68
2023/04/15 02:11:28;;;;;;;22.57;18.17;;;9.50;99.90;;;;;;8292740;28;20192;-69
2023/04/15 02:15:29;;;;;;;22.90;17.47;;;9.50;99.90;;;;;;8288902;28;20178;-68
2023/04/15 02:19:31;;;;;;;19.37;15.60;;;9.50;99.90;;;;;;8283336;28;20189;-69
2023/04/15 02:23:31;;;;;;;19.70;16.47;;;9.60;99.90;;;;;;8287997;28;20204;-69
2023/04/15 02:27:32;;;;;;;20.43;16.37;;;9.60;99.90;;;;;;8289199;28;20188;-69
2023/04/15 02:31:36;;;;;;;21.73;15.97;;;9.60;99.90;;;;;;8279808;28;20212;-70
2023/04/15 02:35:43;;;;;;;21.63;17.70;;;9.60;99.90;;;;;;8289103;28;20231;-69
2023/04/15 02:39:44;;;;;;;19.90;16.17;;;9.60;99.90;;;;;;8280080;28;20267;-69
2023/04/15 02:43:48;;;;;;;18.37;16.03;;;9.60;99.90;;;;;;8286369;28;20188;-68
2023/04/15 02:47:49;;;;;;;17.20;14.23;;;9.70;99.90;;;;;;8289457;28;20209;-68
2023/04/15 02:51:50;;;;;;;18.53;15.67;;;9.70;99.90;;;;;;8282544;28;20193;-69
2023/04/15 02:55:51;;;;;;;16.97;15.13;;;9.70;99.90;;;;;;8285160;28;20268;-69
2023/04/15 02:59:52;;;;;;;18.70;14.47;;;9.70;99.90;;;;;;8292183;28;20202;-70
2023/04/15 03:03:53;;;;;;;18.73;16.57;;;9.80;99.90;;;;;;8301093;28;20201;-70
2023/04/15 03:07:54;;;;;;;18.60;14.40;;;9.80;99.90;;;;;;8297205;28;20212;-66
2023/04/15 03:11:55;;;;;;;19.37;16.30;;;9.80;99.90;;;;;;8292734;28;20202;-67
2023/04/15 03:15:56;;;;;;;17.93;14.23;;;9.80;99.90;;;;;;8294684;28;20197;-68
2023/04/15 03:20:02;;;;;;;20.87;17.07;;;9.80;99.90;;;;;;8298960;28;20187;-67
2023/04/15 03:24:03;;;;;;;18.27;15.43;;;9.80;99.90;;;;;;8287410;28;20190;-68
2023/04/15 03:28:05;;;;;;;16.10;13.83;;;9.80;99.90;;;;;;8289285;28;20264;-68
2023/04/15 03:32:06;;;;;;;17.57;15.00;;;9.80;99.90;;;;;;8288136;28;20189;-68
2023/04/15 03:36:07;;;;;;;37.77;22.90;;;9.80;99.90;;;;;;8290954;28;20251;-68
2023/04/15 03:40:08;;;;;;;20.43;16.23;;;9.80;99.90;;;;;;8284259;28;20189;-68
2023/04/15 03:44:12;;;;;;;19.60;17.40;;;9.80;99.90;;;;;;8286368;28;20200;-68
2023/04/15 03:48:13;;;;;;;21.33;15.30;;;9.70;99.90;;;;;;8290975;28;20213;-68
2023/04/15 03:52:14;;;;;;;17.97;15.20;;;9.80;99.90;;;;;;8289635;28;20301;-68
2023/04/15 03:56:16;;;;;;;41.63;29.60;;;9.80;99.90;;;;;;8294729;28;20205;-67
2023/04/15 04:00:17;;;;;;;20.37;16.60;;;9.80;99.90;;;;;;8284236;28;20205;-67
2023/04/15 04:04:18;;;;;;;23.97;20.17;;;9.80;99.90;;;;;;8293826;28;20262;-68
2023/04/15 04:08:20;;;;;;;21.80;17.77;;;9.80;99.90;;;;;;8293789;28;20209;-67
2023/04/15 04:12:21;;;;;;;30.77;25.07;;;9.80;99.90;;;;;;8291097;28;20187;-67
2023/04/15 04:16:37;;;;;;;27.63;21.30;;;9.80;99.90;;;;;;8282397;28;20252;-68
2023/04/15 04:20:38;;;;;;;20.93;17.30;;;9.80;99.90;;;;;;8280556;28;20189;-68
2023/04/15 04:24:39;;;;;;;25.37;17.57;;;9.80;99.90;;;;;;8286724;28;20190;-69
2023/04/15 04:28:40;;;;;;;18.07;16.07;;;9.80;99.90;;;;;;8284413;28;20205;-67
2023/04/15 04:32:41;;;;;;;20.00;17.03;;;9.80;99.90;;;;;;8285185;28;20224;-67
2023/04/15 04:36:43;;;;;;;21.63;18.07;;;9.80;99.90;;;;;;8283416;28;20193;-69
2023/04/15 04:40:44;;;;;;;20.93;15.77;;;9.80;99.90;;;;;;8284221;28;20202;-69
2023/04/15 04:44:46;;;;;;;21.60;16.60;;;9.80;99.90;;;;;;8281396;28;20201;-69
2023/04/15 04:48:46;;;;;;;22.53;18.33;;;9.70;99.90;;;;;;8285084;28;20224;-67
2023/04/15 04:52:47;;;;;;;22.20;17.23;;;9.80;99.90;;;;;;8289083;28;20220;-66
2023/04/15 04:56:48;;;;;;;20.17;16.50;;;9.80;99.90;;;;;;8288296;28;20284;-68
2023/04/15 05:00:50;;;;;;;20.63;18.03;;;9.80;99.90;;;;;;8282641;28;20209;-67
2023/04/15 05:04:53;;;;;;;23.90;18.70;;;9.80;99.90;;;;;;8292115;28;20297;-69
2023/04/15 05:08:55;;;;;;;21.37;16.80;;;9.80;99.90;;;;;;8280678;28;20299;-68
2023/04/15 05:12:57;;;;;;;20.67;16.03;;;9.80;99.90;;;;;;8284610;28;20197;-67
2023/04/15 05:16:58;;;;;;;21.63;16.80;;;9.80;99.90;;;;;;8286653;28;20190;-67
2023/04/15 05:20:59;;;;;;;23.37;19.43;;;9.80;99.90;;;;;;8282734;28;20193;-69
2023/04/15 05:25:00;;;;;;;29.90;22.30;;;9.90;99.90;;;;;;8288914;28;20198;-66
2023/04/15 05:29:01;;;;;;;38.97;28.07;;;9.90;99.90;;;;;;8287829;28;20209;-69
2023/04/15 05:33:02;;;;;;;35.67;27.63;;;9.90;99.90;;;;;;8286042;28;20219;-69
2023/04/15 05:37:03;;;;;;;23.13;18.70;;;9.90;99.90;;;;;;8276933;28;20332;-70
2023/04/15 05:41:04;;;;;;;18.87;16.77;;;9.90;99.90;;;;;;8282036;28;20185;-69
2023/04/15 05:45:08;;;;;;;29.43;23.27;;;9.90;99.90;;;;;;8294770;28;20202;-70
2023/04/15 05:49:09;;;;;;;41.87;32.37;;;9.90;99.90;;;;;;8296294;28;20243;-69
2023/04/15 05:53:13;;;;;;;73.00;45.57;;;10.00;99.90;;;;;;8279474;28;20200;-70
2023/04/15 05:57:17;;;;;;;55.60;42.57;;;10.10;99.90;;;;;;8285134;28;20273;-70
2023/04/15 06:01:18;;;;;;;44.07;35.50;;;10.30;99.90;;;;;;8301730;28;20262;-70
2023/04/15 06:16:03;;;;;;;25.50;21.37;;;10.40;99.90;;;;;;8396775;27;20537;-69
2023/04/15 06:20:05;;;;;;;40.20;25.47;;;10.80;99.90;;;;;;8362886;28;20253;-69
2023/04/15 06:24:06;;;;;;;56.97;34.97;;;10.90;99.90;;;;;;8369063;28;20275;-70
2023/04/15 06:28:13;;;;;;;34.27;29.87;;;10.90;99.90;;;;;;8377445;28;20188;-68
2023/04/15 06:32:15;;;;;;;21.20;18.13;;;10.90;99.90;;;;;;8354726;28;20204;-69
2023/04/15 06:36:16;;;;;;;27.27;17.67;;;10.90;99.90;;;;;;8367222;28;20207;-70
2023/04/15 06:40:17;;;;;;;15.80;10.43;;;10.90;99.90;;;;;;8368881;28;20188;-68
2023/04/15 06:44:18;;;;;;;14.83;10.30;;;10.90;99.90;;;;;;8368371;28;20212;-70
2023/04/15 06:48:19;;;;;;;11.47;8.77;;;11.00;99.90;;;;;;8380472;28;20249;-70
2023/04/15 06:52:20;;;;;;;3.10;2.80;;;11.10;99.90;;;;;;8365627;28;20189;-68
2023/04/15 06:56:23;;;;;;;6.93;3.53;;;11.10;99.90;;;;;;8380691;28;20208;-69
2023/04/15 07:00:24;;;;;;;5.60;2.80;;;11.20;99.90;;;;;;8379611;28;20212;-69
2023/04/15 07:04:27;;;;;;;4.63;1.97;;;11.30;99.90;;;;;;8387221;28;20212;-68
2023/04/15 07:08:32;;;;;;;2.53;1.80;;;11.40;99.90;;;;;;8381556;28;20295;-69
2023/04/15 07:12:34;;;;;;;2.00;1.33;;;11.40;99.90;;;;;;8387599;28;20211;-69
2023/04/15 07:16:36;;;;;;;2.33;1.93;;;11.50;99.90;;;;;;8359957;28;20208;-69
2023/04/15 07:20:37;;;;;;;2.67;2.13;;;11.60;99.90;;;;;;8360362;28;20197;-69
2023/04/15 07:24:38;;;;;;;2.90;2.20;;;11.70;99.90;;;;;;8354413;28;20297;-69
2023/04/15 07:28:39;;;;;;;7.40;4.10;;;11.70;1.00;;;;;;8358296;28;20181;-69
2023/04/15 07:32:52;;;;;;;;;;;;;;;;;;;;;
2023/04/15 07:36:53;;;;;;;17.53;7.50;;;12.10;99.90;;;;;;8366519;28;20233;-70
2023/04/15 07:40:55;;;;;;;4.20;3.80;;;12.50;1.00;;;;;;8355156;28;20190;-69
2023/04/15 07:44:58;;;;;;;4.70;4.30;;;12.70;99.90;;;;;;8354093;28;20308;-70
2023/04/15 07:48:59;;;;;;;20.03;10.37;;;13.00;99.90;;;;;;8336164;28;20296;-67
2023/04/15 07:53:04;;;;;;;6.53;3.97;;;13.40;99.90;;;;;;8356969;28;20186;-68
2023/04/15 07:57:05;;;;;;;5.77;3.77;;;14.00;99.90;;;;;;8355930;28;20224;-69
2023/04/15 08:01:06;;;;;;;5.77;3.97;;;14.40;99.90;;;;;;8355290;28;20196;-68
2023/04/15 08:05:10;;;;;;;10.20;7.13;;;14.60;99.90;;;;;;8354247;28;20260;-68
2023/04/15 08:09:11;;;;;;;7.90;5.67;;;15.00;99.90;;;;;;8351146;28;20189;-68
2023/04/15 08:13:12;;;;;;;7.23;4.63;;;15.40;99.90;;;;;;8350829;28;20239;-69
2023/04/15 08:17:13;;;;;;;4.10;2.90;;;15.70;73.70;;;;;;8364396;28;20193;-68
2023/04/15 08:21:18;;;;;;;4.83;2.50;;;15.70;63.60;;;;;;8352435;28;20276;-68
2023/04/15 08:25:19;;;;;;;15.63;13.03;;;15.60;66.80;;;;;;8355483;28;20241;-68
2023/04/15 08:29:20;;;;;;;9.80;7.57;;;15.40;35.00;;;;;;8359317;28;20208;-67
2023/04/15 08:33:21;;;;;;;9.00;6.30;;;15.40;45.80;;;;;;8354266;28;20181;-68
2023/04/15 08:37:22;;;;;;;6.63;4.67;;;15.50;43.70;;;;;;8359486;28;20279;-68
2023/04/15 08:41:26;;;;;;;9.80;5.80;;;15.50;28.30;;;;;;8362930;28;20191;-67
2023/04/15 08:45:30;;;;;;;5.60;3.87;;;15.30;33.20;;;;;;8357487;28;20258;-67
2023/04/15 08:49:34;;;;;;;10.37;6.27;;;14.70;76.90;;;;;;8360174;28;20182;-67
2023/04/15 08:53:36;;;;;;;5.33;4.57;;;14.50;54.30;;;;;;8353601;28;20237;-68
2023/04/15 08:57:40;;;;;;;11.77;6.17;;;14.50;54.20;;;;;;8355496;28;20304;-69
2023/04/15 09:01:41;;;;;;;4.43;2.80;;;14.70;33.80;;;;;;8356135;28;20242;-67
2023/04/15 09:05:43;;;;;;;4.33;2.93;;;14.50;26.70;;;;;;8360618;28;20192;-67
2023/04/15 09:09:44;;;;;;;3.30;1.93;;;14.60;23.20;;;;;;8350037;28;20209;-69
2023/04/15 09:13:46;;;;;;;3.27;2.57;;;15.00;1.00;;;;;;8351024;28;20201;-69
2023/04/15 09:17:47;;;;;;;2.70;2.00;;;15.20;1.00;;;;;;8352876;28;20222;-68
2023/04/15 09:21:56;;;;;;;1.30;1.17;;;15.30;1.00;;;;;;8353101;28;20189;-69
2023/04/15 09:25:57;;;;;;;1.33;0.90;;;15.30;1.00;;;;;;8360262;28;20264;-69
2023/04/15 09:29:58;;;;;;;1.27;1.07;;;15.20;1.00;;;;;;8351591;28;20181;-68
2023/04/15 09:34:00;;;;;;;1.90;1.33;;;15.00;1.00;;;;;;8341946;28;20319;-71
2023/04/15 09:38:06;;;;;;;0.80;0.60;;;14.60;1.00;;;;;;8356885;28;20190;-72
2023/04/15 09:42:22;;;;;;;1.70;0.93;;;14.60;1.00;;;;;;8359880;28;20202;-73
2023/04/15 09:46:43;;;;;;;0.60;0.50;;;14.60;1.00;;;;;;8359853;28;20200;-71
2023/04/15 09:50:44;;;;;;;1.20;1.00;;;14.50;1.00;;;;;;8351936;28;20185;-72
2023/04/15 09:54:45;;;;;;;1.30;0.73;;;14.30;1.00;;;;;;8359420;28;20255;-72
2023/04/15 09:58:59;;;;;;;0.93;0.60;;;14.30;1.00;;;;;;8361820;28;20247;-72
2023/04/15 10:03:00;;;;;;;1.33;0.90;;;14.50;1.00;;;;;;8345990;28;20209;-72
2023/04/15 10:07:04;;;;;;;2.33;1.00;;;14.70;1.00;;;;;;8364305;28;20208;-72
2023/04/15 10:11:09;;;;;;;2.50;1.00;;;14.70;1.00;;;;;;8358340;28;20262;-74
2023/04/15 10:15:16;;;;;;;2.03;1.03;;;14.80;1.00;;;;;;8359052;28;20194;-71
2023/04/15 10:19:20;;;;;;;1.50;0.80;;;14.90;1.00;;;;;;8334604;28;20200;-74
2023/04/15 10:23:23;;;;;;;3.70;2.43;;;14.90;1.00;;;;;;8356437;28;20217;-74
2023/04/15 10:27:24;;;;;;;3.83;2.87;;;15.00;1.00;;;;;;8351845;28;20185;-73
2023/04/15 10:31:25;;;;;;;2.20;1.70;;;15.10;1.00;;;;;;8340072;28;20185;-74
2023/04/15 10:35:29;;;;;;;1.23;0.80;;;15.40;1.00;;;;;;8353353;28;20181;-74
2023/04/15 10:39:33;;;;;;;0.80;0.50;;;15.70;1.00;;;;;;8355719;28;20236;-75
2023/04/15 10:43:36;;;;;;;2.30;0.80;;;16.00;1.00;;;;;;8356837;28;20240;-72
2023/04/15 10:47:38;;;;;;;0.73;0.60;;;16.20;1.00;;;;;;8360135;28;20189;-72
2023/04/15 10:52:04;;;;;;;8.00;1.37;;;16.20;1.00;;;;;;8363093;28;20304;-74
2023/04/15 10:56:11;;;;;;;0.90;0.70;;;16.40;1.00;;;;;;8374291;22;20217;-75
2023/04/15 11:00:14;;;;;;;1.40;0.90;;;16.80;1.00;;;;;;8369195;28;20220;-74
2023/04/15 11:04:57;;;;;;;2.80;1.20;;;17.00;1.00;;;;;;8335469;28;20213;-74
2023/04/15 11:09:31;;;;;;;14.37;3.57;;;17.50;1.00;;;;;;8372018;28;20179;-74
2023/04/15 11:13:48;;;;;;;1.73;0.50;;;17.60;1.00;;;;;;8339564;28;20262;-75
2023/04/15 11:17:52;;;;;;;1.20;0.47;;;17.70;1.00;;;;;;8369397;28;20201;-75
2023/04/15 11:21:53;;;;;;;0.70;0.40;;;17.70;1.00;;;;;;8341140;28;20208;-75
2023/04/15 11:26:17;;;;;;;1.20;0.50;;;17.60;1.00;;;;;;8338459;28;20178;-74
2023/04/15 11:30:24;;;;;;;1.10;0.87;;;17.50;1.00;;;;;;8339317;28;20258;-75
2023/04/15 11:34:37;;;;;;;4.17;2.90;;;17.40;1.00;;;;;;8336826;28;20187;-74
2023/04/15 11:38:42;;;;;;;0.97;0.50;;;17.30;1.00;;;;;;8333564;28;20273;-75
2023/04/15 11:42:47;;;;;;;2.07;0.50;;;17.60;1.00;;;;;;8335376;28;20535;-75
2023/04/15 11:46:48;;;;;;;1.00;0.70;;;17.80;1.00;;;;;;8356155;28;20178;-75
2023/04/15 11:51:10;;;;;;;0.70;0.50;;;17.70;1.00;;;;;;8313204;28;20214;-80
2023/04/15 11:55:17;;;;;;;5.87;1.63;;;17.50;1.00;;;;;;8308927;28;20187;-80
2023/04/15 11:59:19;;;;;;;1.70;0.60;;;17.60;1.00;;;;;;8288114;28;20200;-81
2023/04/15 12:03:30;;;;;;;1.27;0.40;;;17.50;1.00;;;;;;8273408;28;20223;-80
2023/04/15 12:07:31;;;;;;;0.60;0.30;;;17.30;1.00;;;;;;8288297;28;20199;-81
2023/04/15 12:11:37;;;;;;;0.77;0.30;;;17.20;1.00;;;;;;8290423;28;20179;-81
2023/04/15 12:15:40;;;;;;;1.17;0.73;;;17.50;1.00;;;;;;8272474;28;20261;-80
2023/04/15 12:19:47;;;;;;;2.77;0.93;;;17.60;1.00;;;;;;8269051;28;20298;-76
2023/04/15 12:24:23;;;;;;;9.10;5.47;;;17.60;1.00;;;;;;8279522;28;20442;-75
2023/04/15 12:28:33;;;;;;;2.67;1.27;;;17.90;1.00;;;;;;8296114;28;20197;-75
2023/04/15 12:32:42;;;;;;;10.77;6.40;;;17.70;1.00;;;;;;8320014;28;20190;-75
2023/04/15 12:36:49;;;;;;;1.73;0.50;;;17.70;1.00;;;;;;8307319;28;20183;-76
2023/04/15 12:40:50;;;;;;;0.57;0.30;;;17.40;1.00;;;;;;8332943;28;20186;-74
2023/04/15 12:44:52;;;;;;;1.10;0.30;;;17.60;1.00;;;;;;8315926;28;20277;-75
2023/04/15 12:48:59;;;;;;;1.80;1.03;;;17.90;1.00;;;;;;8302286;28;20236;-76
2023/04/15 12:53:06;;;;;;;1.20;0.83;;;18.60;1.00;;;;;;8333032;28;20251;-76
2023/04/15 12:57:07;;;;;;;0.60;0.40;;;18.50;1.00;;;;;;8302125;28;20203;-76
2023/04/15 13:01:20;;;;;;;1.50;1.10;;;18.50;1.00;;;;;;8301359;28;20186;-74
2023/04/15 13:05:22;;;;;;;0.97;0.80;;;18.90;1.00;;;;;;8315813;28;20293;-75
2023/04/15 13:09:23;;;;;;;2.63;1.63;;;18.70;1.00;;;;;;8296503;28;20183;-76
2023/04/15 13:13:26;;;;;;;1.90;1.07;;;18.50;1.00;;;;;;8299288;28;20187;-76
2023/04/15 13:17:27;;;;;;;4.57;2.37;;;18.30;1.00;;;;;;8299436;28;20211;-76
2023/04/15 13:21:33;;;;;;;0.70;0.50;;;18.10;1.00;;;;;;8300039;28;20184;-75
2023/04/15 13:25:36;;;;;;;1.17;0.70;;;18.10;1.00;;;;;;8301190;28;20206;-76
2023/04/15 13:29:38;;;;;;;1.60;0.67;;;17.60;1.00;;;;;;8316772;28;20179;-74
2023/04/15 13:33:39;;;;;;;0.90;0.63;;;17.40;1.00;;;;;;8301714;28;20224;-76
2023/04/15 13:37:43;;;;;;;8.20;5.70;;;16.80;1.00;;;;;;8306190;28;20189;-75
2023/04/15 13:41:49;;;;;;;2.80;1.87;;;16.60;1.00;;;;;;8312016;28;20187;-75
2023/04/15 13:45:51;;;;;;;1.93;1.10;;;16.70;1.00;;;;;;8306300;28;20268;-80
2023/04/15 13:49:55;;;;;;;1.40;0.73;;;16.70;1.00;;;;;;8302534;28;20285;-80
2023/04/15 13:53:58;;;;;;;6.27;4.10;;;16.70;1.00;;;;;;8311519;28;20229;-81
2023/04/15 13:58:00;;;;;;;1.77;1.27;;;16.80;1.00;;;;;;8331938;28;20314;-81
2023/04/15 14:02:25;;;;;;;1.00;0.70;;;16.90;1.00;;;;;;8319352;28;20207;-81
2023/04/15 14:06:26;;;;;;;1.50;0.80;;;16.90;1.00;;;;;;8317695;28;20244;-81
2023/04/15 14:10:30;;;;;;;3.67;2.13;;;16.80;1.00;;;;;;8299808;28;20193;-81
2023/04/15 14:14:31;;;;;;;2.30;1.50;;;16.90;1.00;;;;;;8305907;28;20266;-81
2023/04/15 14:18:38;;;;;;;2.73;1.83;;;16.90;1.00;;;;;;8301305;28;20191;-81
2023/04/15 14:22:41;;;;;;;1.80;0.83;;;16.90;1.00;;;;;;8307340;28;20229;-81
2023/04/15 14:26:46;;;;;;;1.90;1.00;;;16.70;1.00;;;;;;8303586;28;20204;-82
2023/04/15 14:30:47;;;;;;;2.93;1.90;;;16.50;1.00;;;;;;8319810;28;20185;-81
2023/04/15 14:34:48;;;;;;;1.60;1.33;;;16.40;1.00;;;;;;8312491;28;20190;-80
2023/04/15 14:38:49;;;;;;;1.13;0.90;;;16.30;1.00;;;;;;8320935;28;20225;-81
2023/04/15 14:42:50;;;;;;;7.63;3.07;;;16.20;1.00;;;;;;8331096;28;20210;-81
2023/04/15 14:47:01;;;;;;;;;;;;;;;;;;;;;
2023/04/15 14:51:06;;;;;;;4.30;2.67;;;15.90;1.00;;;;;;8360799;28;20206;-83
2023/04/15 14:55:12;;;;;;;9.57;4.57;;;15.80;1.00;;;;;;8343885;28;20191;-81
2023/04/15 14:59:13;;;;;;;4.20;1.70;;;15.90;1.00;;;;;;8360945;28;20211;-80
2023/04/15 15:03:14;;;;;;;8.63;4.80;;;15.90;1.00;;;;;;8364009;28;20230;-81
2023/04/15 15:07:17;;;;;;;5.83;2.70;;;15.90;1.00;;;;;;8362399;28;20183;-80
2023/04/15 15:11:25;;;;;;;4.70;2.43;;;16.00;1.00;;;;;;8334664;28;20314;-80
2023/04/15 15:15:34;;;;;;;7.03;4.00;;;16.00;1.00;;;;;;8333512;28;20259;-80
2023/04/15 15:19:35;;;;;;;2.87;1.60;;;16.00;1.00;;;;;;8318751;28;20245;-81
2023/04/15 15:23:37;;;;;;;2.90;1.53;;;15.80;1.00;;;;;;8352226;28;20219;-79
2023/04/15 15:27:38;;;;;;;2.93;1.50;;;15.90;1.00;;;;;;8319944;28;20183;-81
2023/04/15 15:31:44;;;;;;;2.87;1.90;;;16.00;1.00;;;;;;8321337;28;20224;-80
2023/04/15 15:36:04;;;;;;;7.67;4.57;;;16.00;1.00;;;;;;8329040;28;20182;-81
2023/04/15 15:40:11;;;;;;;3.93;2.60;;;15.90;1.00;;;;;;8316243;28;20289;-80
2023/04/15 15:44:18;;;;;;;1.70;1.20;;;15.70;1.00;;;;;;8320506;28;20430;-81
2023/04/15 15:48:22;;;;;;;1.20;0.90;;;15.50;1.00;;;;;;8318350;28;20203;-75
2023/04/15 15:52:43;;;;;;;1.23;0.80;;;15.20;1.00;;;;;;8255069;28;20226;-75
2023/04/15 15:56:54;;;;;;;1.43;0.73;;;14.90;1.00;;;;;;8246846;28;20231;-76
2023/04/15 16:01:00;;;;;;;1.13;0.80;;;14.70;1.00;;;;;;8277630;28;20196;-76
2023/04/15 16:05:17;;;;;;;1.03;0.60;;;14.60;1.00;;;;;;8244577;28;20215;-75
2023/04/15 16:09:18;;;;;;;1.03;0.60;;;14.60;1.00;;;;;;8245104;28;20192;-75
2023/04/15 16:13:20;;;;;;;0.80;0.70;;;14.60;1.00;;;;;;8245752;28;20192;-74
2023/04/15 16:17:22;;;;;;;0.93;0.73;;;14.60;1.00;;;;;;8259751;28;20249;-75
2023/04/15 16:21:26;;;;;;;1.93;1.27;;;14.50;1.00;;;;;;8250193;28;20200;-75
2023/04/15 16:25:30;;;;;;;2.43;1.30;;;14.40;1.00;;;;;;8272055;28;20219;-75
2023/04/15 16:29:33;;;;;;;1.77;1.10;;;14.20;1.00;;;;;;8311233;28;20228;-75
2023/04/15 16:33:38;;;;;;;1.97;1.27;;;14.10;1.00;;;;;;8306956;28;20195;-74
2023/04/15 16:37:39;;;;;;;1.10;0.80;;;14.00;1.00;;;;;;8345276;28;20277;-74
2023/04/15 16:41:41;;;;;;;0.80;0.67;;;13.80;1.00;;;;;;8307882;28;20182;-75
2023/04/15 16:45:50;;;;;;;1.00;0.70;;;13.60;1.00;;;;;;8306337;28;20233;-76
2023/04/15 16:49:51;;;;;;;0.83;0.70;;;13.40;1.00;;;;;;8328052;28;20214;-75
2023/04/15 16:53:56;;;;;;;1.30;0.73;;;13.20;1.00;;;;;;8302098;28;20186;-75
2023/04/15 16:57:58;;;;;;;2.30;1.30;;;13.10;9.70;;;;;;8305393;28;20276;-75
2023/04/15 17:01:59;;;;;;;1.20;1.10;;;12.90;99.90;;;;;;8322899;28;20186;-75
2023/04/15 17:06:13;;;;;;;1.53;1.07;;;12.50;99.90;;;;;;8300841;28;20289;-75
2023/04/15 17:10:17;;;;;;;2.53;1.70;;;12.30;99.90;;;;;;8318629;28;20190;-75
2023/04/15 17:14:18;;;;;;;1.70;1.53;;;12.10;99.90;;;;;;8303866;28;20183;-75
2023/04/15 17:18:22;;;;;;;2.00;1.77;;;11.90;99.90;;;;;;8303382;28;20289;-75
2023/04/15 17:22:25;;;;;;;2.20;1.70;;;11.70;99.90;;;;;;8302359;28;20207;-76
2023/04/15 17:26:38;;;;;;;2.60;1.60;;;11.60;1.00;;;;;;8309883;28;20178;-76
2023/04/15 17:31:05;;;;;;;2.30;1.90;;;11.40;1.00;;;;;;8297180;28;20209;-74
2023/04/15 17:35:22;;;;;;;1.97;1.60;;;11.10;13.20;;;;;;8308148;28;20197;-74
2023/04/15 17:39:29;;;;;;;2.10;1.80;;;10.90;99.90;;;;;;8308003;28;20187;-75
2023/04/15 17:43:57;;;;;;;2.03;1.60;;;10.80;99.90;;;;;;8290600;28;20226;-81
2023/04/15 17:48:01;;;;;;;2.20;2.00;;;10.70;99.90;;;;;;8311000;28;20209;-80
2023/04/15 17:52:05;;;;;;;2.57;1.80;;;10.60;99.90;;;;;;8316401;28;20194;-83
2023/04/15 17:56:12;;;;;;;2.07;1.87;;;10.40;1.00;;;;;;8322336;28;20188;-83
2023/04/15 18:00:16;;;;;;;2.33;1.70;;;10.30;1.00;;;;;;8312589;28;20202;-83
2023/04/15 18:04:20;;;;;;;3.10;2.00;;;10.10;1.00;;;;;;8314209;28;20255;-83
2023/04/15 18:08:22;;;;;;;2.17;1.73;;;9.90;1.00;;;;;;8315904;28;20181;-83
2023/04/15 18:12:26;;;;;;;2.40;1.90;;;9.80;91.40;;;;;;8328459;28;20195;-83
2023/04/15 18:16:28;;;;;;;2.13;1.93;;;9.70;53.80;;;;;;8325153;28;20180;-83
2023/04/15 18:20:29;;;;;;;2.10;1.90;;;9.60;30.50;;;;;;8320232;28;20193;-82
2023/04/15 18:24:33;;;;;;;2.30;1.90;;;9.50;99.90;;;;;;8339526;28;20224;-82
2023/04/15 18:29:13;;;;;;;4.43;2.20;;;9.40;91.00;;;;;;8321992;28;20192;-83
2023/04/15 18:33:14;;;;;;;2.47;2.03;;;9.40;99.90;;;;;;8367020;28;20239;-82
2023/04/15 18:37:34;;;;;;;2.10;1.87;;;9.30;1.00;;;;;;8345584;28;20264;-82
2023/04/15 18:41:51;;;;;;;2.00;1.67;;;9.20;1.00;;;;;;8357716;28;20203;-83
2023/04/15 18:46:08;;;;;;;;;;;;;;;;;;;;;
2023/04/15 18:50:13;;;;;;;2.57;2.23;;;9.00;1.00;;;;;;8358172;28;20203;-83
2023/04/15 18:54:30;;;;;;;2.47;2.00;;;9.00;1.00;;;;;;8340556;28;20190;-82
2023/04/15 18:58:33;;;;;;;2.03;1.83;;;8.90;1.00;;;;;;8339887;28;20207;-82
2023/04/15 19:03:00;;;;;;;2.63;2.10;;;8.80;1.00;;;;;;8340838;28;20206;-82
2023/04/15 19:07:08;;;;;;;2.47;2.23;;;8.80;99.10;;;;;;8317271;28;20204;-81
2023/04/15 19:11:22;;;;;;;2.20;2.00;;;8.70;1.00;;;;;;8328708;28;20195;-81
2023/04/15 19:15:26;;;;;;;2.40;2.20;;;8.60;99.90;;;;;;8341991;28;20282;-82
2023/04/15 19:19:50;;;;;;;2.20;2.00;;;8.60;99.90;;;;;;8332560;28;20195;-81
2023/04/15 19:24:01;;;;;;;2.20;2.00;;;8.60;99.90;;;;;;8330441;28;20215;-81
2023/04/15 19:28:27;;;;;;;2.73;2.10;;;8.60;99.90;;;;;;8317623;28;20263;-81
2023/04/15 19:32:29;;;;;;;2.93;2.10;;;8.60;99.90;;;;;;8322006;28;20190;-82
2023/04/15 19:36:34;;;;;;;2.33;1.80;;;8.50;1.00;;;;;;8312719;28;20198;-81
2023/04/15 19:41:13;;;;;;;2.30;2.07;;;8.50;1.00;;;;;;8312367;28;20192;-82
2023/04/15 19:45:15;;;;;;;3.40;2.13;;;8.50;1.00;;;;;;8323020;28;20222;-82
2023/04/15 19:49:30;;;;;;;4.23;2.30;;;8.50;1.00;;;;;;8319518;28;20230;-81
2023/04/15 19:53:34;;;;;;;2.53;2.30;;;8.40;66.80;;;;;;8316223;28;20198;-82
2023/04/15 19:57:45;;;;;;;3.40;2.47;;;8.40;99.90;;;;;;8317107;28;20195;-82
2023/04/15 20:01:57;;;;;;;3.27;2.83;;;8.40;99.90;;;;;;8312345;28;20191;-81
2023/04/15 20:06:20;;;;;;;5.73;3.27;;;8.40;99.90;;;;;;8308287;28;20216;-82
2023/04/15 20:10:30;;;;;;;3.73;2.93;;;8.40;99.90;;;;;;8307247;28;20183;-81
2023/04/15 20:14:37;;;;;;;3.93;3.10;;;8.30;99.90;;;;;;8308054;28;20183;-82
2023/04/15 20:18:46;;;;;;;5.73;3.13;;;8.20;99.90;;;;;;8311557;28;20191;-82
2023/04/15 20:22:54;;;;;;;2.63;2.37;;;8.10;1.00;;;;;;8312018;28;20210;-82
2023/04/15 20:26:56;;;;;;;2.50;2.30;;;8.00;1.00;;;;;;8308499;28;20190;-82
2023/04/15 20:30:59;;;;;;;2.53;2.20;;;8.00;56.00;;;;;;8310760;28;20217;-82
2023/04/15 20:35:07;;;;;;;2.90;2.27;;;7.90;1.00;;;;;;8325439;28;20187;-82
2023/04/15 20:39:08;;;;;;;2.83;2.43;;;7.90;1.00;;;;;;8307237;28;20191;-82
2023/04/15 20:43:12;;;;;;;3.27;2.80;;;7.80;99.90;;;;;;8302307;28;20306;-82
2023/04/15 20:47:14;;;;;;;3.90;2.30;;;7.80;99.90;;;;;;8337516;28;20217;-82
2023/04/15 20:51:57;;;;;;;2.93;2.30;;;7.70;1.00;;;;;;8305943;28;20202;-82
2023/04/15 20:56:01;;;;;;;3.37;2.60;;;7.60;99.90;;;;;;8296878;28;20234;-81
2023/04/15 21:00:08;;;;;;;2.87;2.47;;;7.60;1.00;;;;;;8303065;28;20210;-82
2023/04/15 21:04:09;;;;;;;5.20;2.47;;;7.50;99.90;;;;;;8304620;28;20279;-81
2023/04/15 21:08:28;;;;;;;;;;;;;;;;;;;;;
2023/04/15 21:12:29;;;;;;;4.20;2.30;;;7.40;99.90;;;;;;8322768;28;20195;-81
2023/04/15 21:16:34;;;;;;;2.83;2.53;;;7.40;1.00;;;;;;8303884;28;20253;-81
2023/04/15 21:20:35;;;;;;;3.93;2.83;;;7.30;99.90;;;;;;8292485;28;20203;-80
2023/04/15 21:24:36;;;;;;;2.83;2.53;;;7.20;99.90;;;;;;8307004;28;20240;-82
2023/04/15 21:28:50;;;;;;;3.17;2.67;;;7.20;99.90;;;;;;8310664;28;20182;-81
2023/04/15 21:33:04;;;;;;;3.33;2.33;;;7.00;99.90;;;;;;8308680;28;20285;-81
2023/04/15 21:37:11;;;;;;;2.67;2.33;;;6.90;99.90;;;;;;8311692;28;20215;-81